Yellowstone Airport
KWYS : now visible

Airfield :











YOU CAN JOIN US ON...

 
LOGIN :

Register | Disclaimer

   EN    FR    IT 

 









Legend :    VFR   Marginal VFR   IFR   Intensive IFR   Very Intensive IFR
Visi :
Ceiling :
>= 8 km
>= 3000ft
5 to 8 km
1000 to 3000 ft
1500m to 5 km
500 to 1000 ft
800 to 1500m
200 to 500 ft
< 800m
< 200 ft
Symbols :   Thunderstorms  Fog  Heavy snow  Heavy precipitations  Wind > 20 kt






- Airport Elevation : 6649 ft


KWYS - Yellowstone

CURRENT METAR :
  • 062110Z AUTO 20005KT 10SM OVC024 M01/M05 A3023 RMK AO2

EXPIRED METARs :
  • 062050Z AUTO 18007KT 10SM OVC026 M01/M05 A3023 RMK AO2
  • 062030Z AUTO 21010KT 10SM OVC026 M01/M05 A3024 RMK AO2
  • 062010Z AUTO 21008KT 10SM OVC024 M01/M05 A3025 RMK AO2
  • 061945Z AUTO 23008KT 10SM OVC025 M01/M05 A3025 RMK AO2
  • 061925Z AUTO 22008KT 10SM OVC026 M01/M05 A3026 RMK AO2
  • 061905Z AUTO 21010KT 10SM OVC026 M01/M04 A3027 RMK AO2
  • 061850Z AUTO 21007KT 10SM OVC026 M01/M04 A3027 RMK AO2
  • 061830Z AUTO 23004KT 10SM OVC026 M01/M04 A3027 RMK AO2

TAF KWYS
Valid from the 06 at 18:00 until the 07 at 18:00 UTC


061720Z 0618/0718 21007KT P6SM SCT003 BKN025
FM070800 19007KT P6SM SCT007 BKN060 WS020/22035KT
PROB30 0709/0715 4SM -SN BKN030
FM071500 21010G19KT P6SM SCT003 BKN050
PROB30 0715/0718 4SM -SN BKN030



MET'MAP, your aeronautical weather chart ! - Copyright ORBIFLY December 2007 - Disclaimer

ORBIFLY MET'MAP TEAM :

Programming & Development : Alexandra Zaïnal
Concept & original design : Baudouin d'Aumeries
Assistance for programming : Marc-Olivier Méhu
Technical & hardware support : Manuel Goepfert

Contact : metmap@orbifly.com




SOURCES & CREDITS :

   NOAA       Earth
Advisory